Time;durP1;ratioP1;P1;durP2;ratioP2;P2;SDS_P1;SDS_P2;PMS_P1;PMS_P2;Temp;Humidity;BMP_temperature;BMP_pressure;BME280_temperature;BME280_humidity;BME280_pressure;Samples;Min_cycle;Max_cycle;Signal;HPM_P1;HPM_P2
2020/07/27 04:01:28;;;;;;;5.8;4.149999;;;;;;;12.34;100;95486.5;;;;
2020/07/27 04:02:28;;;;;;;5.8;4.149999;;;;;;;12.34;100;95486.5;;;;
2020/07/27 04:03:29;;;;;;;5.8;4.149999;;;;;;;12.34;100;95486.5;;;;
2020/07/27 04:04:29;;;;;;;5.8;4.149999;;;;;;;12.34;100;95486.5;;;;
2020/07/27 04:05:30;;;;;;;5.8;4.149999;;;;;;;12.34;100;95486.5;;;;
2020/07/27 04:06:30;;;;;;;5.8;4.149999;;;;;;;12.34;100;95486.5;;;;
2020/07/27 04:07:31;;;;;;;5.8;4.149999;;;;;;;12.34;100;95486.5;;;;
2020/07/27 04:08:31;;;;;;;5.8;4.149999;;;;;;;12.34;100;95486.5;;;;
2020/07/27 04:09:32;;;;;;;5.8;4.149999;;;;;;;12.34;100;95486.5;;;;
2020/07/27 04:10:32;;;;;;;5.8;4.149999;;;;;;;12.34;100;95486.5;;;;
2020/07/27 04:11:33;;;;;;;5.8;4.149999;;;;;;;12.34;100;95486.5;;;;
2020/07/27 04:12:33;;;;;;;5.8;4.149999;;;;;;;12.34;100;95486.5;;;;
2020/07/27 04:13:34;;;;;;;5.8;4.149999;;;;;;;12.34;100;95486.5;;;;
2020/07/27 04:14:34;;;;;;;5.8;4.149999;;;;;;;12.34;100;95486.5;;;;
2020/07/27 04:15:35;;;;;;;5.8;4.149999;;;;;;;12.34;100;95486.5;;;;
2020/07/27 04:16:36;;;;;;;5.8;4.149999;;;;;;;12.34;100;95486.5;;;;
2020/07/27 04:17:36;;;;;;;5.8;4.149999;;;;;;;12.34;100;95486.5;;;;
2020/07/27 04:18:37;;;;;;;5.8;4.149999;;;;;;;12.34;100;95486.5;;;;
2020/07/27 04:19:37;;;;;;;5.8;4.149999;;;;;;;12.34;100;95486.5;;;;
2020/07/27 04:20:38;;;;;;;5.8;4.149999;;;;;;;12.34;100;95486.5;;;;
2020/07/27 04:21:38;;;;;;;5.8;4.149999;;;;;;;12.34;100;95486.5;;;;
2020/07/27 04:22:39;;;;;;;5.8;4.149999;;;;;;;12.34;100;95486.5;;;;
2020/07/27 04:23:39;;;;;;;5.8;4.149999;;;;;;;12.34;100;95486.5;;;;
2020/07/27 04:24:40;;;;;;;5.8;4.149999;;;;;;;12.34;100;95486.5;;;;
2020/07/27 04:25:40;;;;;;;5.8;4.149999;;;;;;;12.34;100;95486.5;;;;
2020/07/27 04:26:41;;;;;;;5.8;4.149999;;;;;;;12.34;100;95486.5;;;;
2020/07/27 04:27:41;;;;;;;5.8;4.149999;;;;;;;12.34;100;95486.5;;;;
2020/07/27 04:28:42;;;;;;;5.8;4.149999;;;;;;;12.34;100;95486.5;;;;
2020/07/27 04:29:42;;;;;;;5.8;4.149999;;;;;;;12.34;100;95486.5;;;;
2020/07/27 04:30:43;;;;;;;5.8;4.149999;;;;;;;12.34;100;95486.5;;;;
2020/07/27 04:31:43;;;;;;;5.8;4.149999;;;;;;;12.34;100;95486.5;;;;
2020/07/27 04:32:44;;;;;;;5.8;4.149999;;;;;;;12.34;100;95486.5;;;;
2020/07/27 04:33:44;;;;;;;6.800001;5.9;;;;;;;12.44;100;95474.94;;;;
2020/07/27 04:34:45;;;;;;;6.800001;5.9;;;;;;;12.44;100;95474.94;;;;
2020/07/27 04:35:45;;;;;;;6.800001;5.9;;;;;;;12.44;100;95474.94;;;;
2020/07/27 04:36:46;;;;;;;6.800001;5.9;;;;;;;12.44;100;95474.94;;;;
2020/07/27 04:37:46;;;;;;;6.800001;5.9;;;;;;;12.44;100;95474.94;;;;
2020/07/27 04:38:47;;;;;;;6.800001;5.9;;;;;;;12.44;100;95474.94;;;;
2020/07/27 04:39:47;;;;;;;6.800001;5.9;;;;;;;12.44;100;95474.94;;;;
2020/07/27 04:40:48;;;;;;;6.800001;5.9;;;;;;;12.44;100;95474.94;;;;
2020/07/27 04:41:49;;;;;;;6.800001;5.9;;;;;;;12.44;100;95474.94;;;;
2020/07/27 04:42:50;;;;;;;6.800001;5.9;;;;;;;12.44;100;95474.94;;;;
2020/07/27 04:43:50;;;;;;;6.800001;5.9;;;;;;;12.44;100;95474.94;;;;
2020/07/27 04:44:51;;;;;;;6.799999;6.15;;;;;;;12.61;100;95483.08;;;;
2020/07/27 04:45:51;;;;;;;6.799999;6.15;;;;;;;12.61;100;95483.08;;;;
2020/07/27 04:46:52;;;;;;;6.799999;6.15;;;;;;;12.61;100;95483.08;;;;
2020/07/27 04:47:52;;;;;;;6.799999;6.15;;;;;;;12.61;100;95483.08;;;;
2020/07/27 04:48:53;;;;;;;6.799999;6.15;;;;;;;12.61;100;95483.08;;;;
2020/07/27 04:49:53;;;;;;;6.799999;6.15;;;;;;;12.61;100;95483.08;;;;
2020/07/27 04:50:54;;;;;;;6.799999;6.15;;;;;;;12.61;100;95483.08;;;;
2020/07/27 04:51:54;;;;;;;6.799999;6.15;;;;;;;12.61;100;95483.08;;;;
2020/07/27 04:52:55;;;;;;;6.799999;6.15;;;;;;;12.61;100;95483.08;;;;
2020/07/27 04:53:55;;;;;;;6.799999;6.15;;;;;;;12.61;100;95483.08;;;;
2020/07/27 04:54:56;;;;;;;7.95;6.6;;;;;;;12.83;100;95480.91;;;;
2020/07/27 04:55:56;;;;;;;7.95;6.6;;;;;;;12.83;100;95480.91;;;;
2020/07/27 04:56:57;;;;;;;7.95;6.6;;;;;;;12.83;100;95480.91;;;;
2020/07/27 04:57:57;;;;;;;7.95;6.6;;;;;;;12.83;100;95480.91;;;;
2020/07/27 04:58:58;;;;;;;7.95;6.6;;;;;;;12.83;100;95480.91;;;;
2020/07/27 04:59:58;;;;;;;7.95;6.6;;;;;;;12.83;100;95480.91;;;;
2020/07/27 05:00:58;;;;;;;7.95;6.6;;;;;;;12.83;100;95480.91;;;;
2020/07/27 05:01:59;;;;;;;7.95;6.6;;;;;;;12.83;100;95480.91;;;;
2020/07/27 05:02:59;;;;;;;7.95;6.6;;;;;;;12.83;100;95480.91;;;;
2020/07/27 05:04:00;;;;;;;7.95;6.6;;;;;;;12.83;100;95480.91;;;;
2020/07/27 05:05:00;;;;;;;7.95;6.6;;;;;;;12.83;100;95480.91;;;;
2020/07/27 05:06:01;;;;;;;7.349999;6.649999;;;;;;;13.11;100;95494.86;;;;
2020/07/27 05:07:01;;;;;;;7.349999;6.649999;;;;;;;13.11;100;95494.86;;;;
2020/07/27 05:08:02;;;;;;;7.349999;6.649999;;;;;;;13.11;100;95494.86;;;;
2020/07/27 05:09:02;;;;;;;7.349999;6.649999;;;;;;;13.11;100;95494.86;;;;
2020/07/27 05:10:03;;;;;;;7.349999;6.649999;;;;;;;13.11;100;95494.86;;;;
2020/07/27 05:11:03;;;;;;;7.349999;6.649999;;;;;;;13.11;100;95494.86;;;;
2020/07/27 05:12:04;;;;;;;7.349999;6.649999;;;;;;;13.11;100;95494.86;;;;
2020/07/27 05:13:04;;;;;;;7.349999;6.649999;;;;;;;13.11;100;95494.86;;;;
2020/07/27 05:14:05;;;;;;;7.349999;6.649999;;;;;;;13.11;100;95494.86;;;;
2020/07/27 05:15:05;;;;;;;7.349999;6.649999;;;;;;;13.11;100;95494.86;;;;
2020/07/27 05:16:06;;;;;;;8;7.2;;;;;;;13.51;100;95504.13;;;;
2020/07/27 05:17:07;;;;;;;8;7.2;;;;;;;13.51;100;95504.13;;;;
2020/07/27 05:18:07;;;;;;;8;7.2;;;;;;;13.51;100;95504.13;;;;
2020/07/27 05:19:08;;;;;;;8;7.2;;;;;;;13.51;100;95504.13;;;;
2020/07/27 05:20:08;;;;;;;8;7.2;;;;;;;13.51;100;95504.13;;;;
2020/07/27 05:21:09;;;;;;;8;7.2;;;;;;;13.51;100;95504.13;;;;
2020/07/27 05:22:09;;;;;;;8;7.2;;;;;;;13.51;100;95504.13;;;;
2020/07/27 05:23:10;;;;;;;8;7.2;;;;;;;13.51;100;95504.13;;;;
2020/07/27 05:24:10;;;;;;;8;7.2;;;;;;;13.51;100;95504.13;;;;
2020/07/27 05:25:11;;;;;;;8;7.2;;;;;;;13.51;100;95504.13;;;;
2020/07/27 05:26:11;;;;;;;8;7.2;;;;;;;13.51;100;95504.13;;;;
2020/07/27 05:27:12;;;;;;;6.2;5.7;;;;;;;14.05;100;95505.99;;;;
2020/07/27 05:28:12;;;;;;;6.2;5.7;;;;;;;14.05;100;95505.99;;;;
2020/07/27 05:29:13;;;;;;;6.2;5.7;;;;;;;14.05;100;95505.99;;;;
2020/07/27 05:30:13;;;;;;;6.2;5.7;;;;;;;14.05;100;95505.99;;;;
2020/07/27 05:31:14;;;;;;;6.2;5.7;;;;;;;14.05;100;95505.99;;;;
2020/07/27 05:32:14;;;;;;;6.2;5.7;;;;;;;14.05;100;95505.99;;;;
2020/07/27 05:33:15;;;;;;;6.2;5.7;;;;;;;14.05;100;95505.99;;;;
2020/07/27 05:34:15;;;;;;;6.2;5.7;;;;;;;14.05;100;95505.99;;;;
2020/07/27 05:35:16;;;;;;;6.2;5.7;;;;;;;14.05;100;95505.99;;;;
2020/07/27 05:36:17;;;;;;;6.2;5.7;;;;;;;14.05;100;95505.99;;;;
2020/07/27 05:37:17;;;;;;;6.2;5.7;;;;;;;14.05;100;95505.99;;;;
2020/07/27 05:38:18;;;;;;;6.35;5.750001;;;;;;;14.5;100;95510.66;;;;
2020/07/27 05:39:18;;;;;;;6.35;5.750001;;;;;;;14.5;100;95510.66;;;;
2020/07/27 05:40:19;;;;;;;6.35;5.750001;;;;;;;14.5;100;95510.66;;;;
2020/07/27 05:41:19;;;;;;;6.35;5.750001;;;;;;;14.5;100;95510.66;;;;
2020/07/27 05:42:20;;;;;;;6.35;5.750001;;;;;;;14.5;100;95510.66;;;;
2020/07/27 05:43:20;;;;;;;6.35;5.750001;;;;;;;14.5;100;95510.66;;;;
2020/07/27 05:44:20;;;;;;;6.35;5.750001;;;;;;;14.5;100;95510.66;;;;
2020/07/27 05:45:21;;;;;;;6.35;5.750001;;;;;;;14.5;100;95510.66;;;;
2020/07/27 05:46:22;;;;;;;6.35;5.750001;;;;;;;14.5;100;95510.66;;;;
2020/07/27 05:47:22;;;;;;;6.35;5.750001;;;;;;;14.5;100;95510.66;;;;
2020/07/27 05:48:23;;;;;;;6.35;5.750001;;;;;;;14.5;100;95510.66;;;;
2020/07/27 05:49:23;;;;;;;6.35;5.750001;;;;;;;14.5;100;95510.66;;;;
2020/07/27 05:50:24;;;;;;;6.35;5.750001;;;;;;;14.5;100;95510.66;;;;
2020/07/27 05:51:24;;;;;;;6.35;5.750001;;;;;;;14.5;100;95510.66;;;;
2020/07/27 05:52:25;;;;;;;6.35;5.750001;;;;;;;14.5;100;95510.66;;;;
2020/07/27 05:53:25;;;;;;;6.35;5.750001;;;;;;;14.5;100;95510.66;;;;
2020/07/27 05:54:25;;;;;;;6.35;5.750001;;;;;;;14.5;100;95510.66;;;;
2020/07/27 05:55:26;;;;;;;6.35;5.750001;;;;;;;14.5;100;95510.66;;;;
2020/07/27 05:56:26;;;;;;;6.35;5.750001;;;;;;;14.5;100;95510.66;;;;
2020/07/27 05:57:27;;;;;;;6.35;5.750001;;;;;;;14.5;100;95510.66;;;;
2020/07/27 05:58:27;;;;;;;6.35;5.750001;;;;;;;14.5;100;95510.66;;;;
2020/07/27 05:59:28;;;;;;;4.95;4.55;;;;;;;15.35;100;95497.08;;;;
2020/07/27 06:00:28;;;;;;;4.95;4.55;;;;;;;15.35;100;95497.08;;;;
2020/07/27 06:01:29;;;;;;;4.95;4.55;;;;;;;15.35;100;95497.08;;;;
2020/07/27 06:02:29;;;;;;;4.95;4.55;;;;;;;15.35;100;95497.08;;;;
2020/07/27 06:03:30;;;;;;;4.95;4.55;;;;;;;15.35;100;95497.08;;;;
2020/07/27 06:04:30;;;;;;;4.95;4.55;;;;;;;15.35;100;95497.08;;;;
2020/07/27 06:05:31;;;;;;;4.95;4.55;;;;;;;15.35;100;95497.08;;;;
2020/07/27 06:06:32;;;;;;;4.95;4.55;;;;;;;15.35;100;95497.08;;;;
2020/07/27 06:07:32;;;;;;;4.95;4.55;;;;;;;15.35;100;95497.08;;;;
2020/07/27 06:08:33;;;;;;;4.95;4.55;;;;;;;15.35;100;95497.08;;;;
2020/07/27 06:09:33;;;;;;;4.95;4.55;;;;;;;15.35;100;95497.08;;;;
2020/07/27 06:10:34;;;;;;;4.95;4.55;;;;;;;15.35;100;95497.08;;;;
2020/07/27 06:11:34;;;;;;;4.95;4.55;;;;;;;15.35;100;95497.08;;;;
2020/07/27 06:12:34;;;;;;;4.95;4.55;;;;;;;15.35;100;95497.08;;;;
2020/07/27 06:13:35;;;;;;;4.95;4.55;;;;;;;15.35;100;95497.08;;;;
2020/07/27 06:23:00;;;;;;;4.95;4.55;;;;;;;15.35;100;95497.08;;;;
2020/07/27 06:32:23;;;;;;;4.95;4.55;;;;;;;15.35;100;95497.08;;;;
2020/07/27 06:41:46;;;;;;;4.95;4.55;;;;;;;15.35;100;95497.08;;;;
2020/07/27 07:05:10;;;;;;;2.3;2.1;;;;;;;20.81;100;95501.04;;;;
2020/07/27 07:14:32;;;;;;;2.3;2.1;;;;;;;20.81;100;95501.04;;;;
2020/07/27 07:23:55;;;;;;;2.2;2;;;;;;;22.1;100;95490.43;;;;
2020/07/27 07:33:18;;;;;;;1.95;1.85;;;;;;;23.49;100;95496.51;;;;
2020/07/27 07:42:42;;;;;;;2.2;1.95;;;;;;;24.43;97.84668;95497.31;;;;
2020/07/27 07:52:05;;;;;;;2.25;2.05;;;;;;;24.68;94.94922;95495.64;;;;
2020/07/27 08:01:28;;;;;;;2.2;1.7;;;;;;;25.1;92.00098;95491.38;;;;
2020/07/27 08:10:51;;;;;;;2.2;1.7;;;;;;;25.47;90.42578;95480.56;;;;
2020/07/27 08:20:14;;;;;;;3.200001;1.8;;;;;;;25.7;88.88574;95484.41;;;;
2020/07/27 08:29:38;;;;;;;1.7;1.6;;;;;;;25.9;87.19238;95480.56;;;;
2020/07/27 08:39:01;;;;;;;1.7;1.6;;;;;;;25.9;87.19238;95480.56;;;;
2020/07/27 08:48:24;;;;;;;2.1;1.9;;;;;;;26.57;84.21289;95479.37;;;;
2020/07/27 08:57:47;;;;;;;1.9;1.7;;;;;;;29.64;76.07227;95477.01;;;;
2020/07/27 09:07:10;;;;;;;1.9;1.7;;;;;;;29.64;76.07227;95477.01;;;;
2020/07/27 09:16:34;;;;;;;1.9;1.7;;;;;;;29.64;76.07227;95477.01;;;;
2020/07/27 09:25:57;;;;;;;2.1;1.8;;;;;;;37.2;57.25195;95484.07;;;;
2020/07/27 09:35:20;;;;;;;2.1;1.8;;;;;;;38.77;51.63477;95479.57;;;;
2020/07/27 09:44:43;;;;;;;2.1;1.8;;;;;;;38.77;51.63477;95479.57;;;;
2020/07/27 09:54:06;;;;;;;2.1;1.8;;;;;;;38.77;51.63477;95479.57;;;;
2020/07/27 10:03:30;;;;;;;2.1;1.8;;;;;;;38.77;51.63477;95479.57;;;;
2020/07/27 10:12:53;;;;;;;2.1;1.8;;;;;;;38.77;51.63477;95479.57;;;;
2020/07/27 10:22:16;;;;;;;1.85;1.75;;;;;;;41.26;40.27344;95449.53;;;;
2020/07/27 10:31:39;;;;;;;2.3;1.75;;;;;;;40.84;38.83789;95426.9;;;;
2020/07/27 10:41:03;;;;;;;2.3;1.75;;;;;;;40.84;38.83789;95426.9;;;;
2020/07/27 10:50:26;;;;;;;2.3;1.75;;;;;;;40.84;38.83789;95426.9;;;;
2020/07/27 10:59:49;;;;;;;2.3;1.75;;;;;;;40.84;38.83789;95426.9;;;;
2020/07/27 11:09:12;;;;;;;2.3;1.75;;;;;;;40.84;38.83789;95426.9;;;;
2020/07/27 11:33:36;;;;;;;1.9;1.7;;;;;;;37.1;37.42383;95333.37;;;;
2020/07/27 11:42:59;;;;;;;1.9;1.7;;;;;;;37.1;37.42383;95333.37;;;;
2020/07/27 11:52:23;;;;;;;1.9;1.7;;;;;;;37.1;37.42383;95333.37;;;;
2020/07/27 12:01:47;;;;;;;1.9;1.7;;;;;;;37.1;37.42383;95333.37;;;;
2020/07/27 12:11:09;;;;;;;1.9;1.7;;;;;;;37.1;37.42383;95333.37;;;;
2020/07/27 14:27:39;;;;;;;1.9;1.7;;;;;;;43.01;27.03711;95141.22;;;;
2020/07/27 14:28:39;;;;;;;1.9;1.7;;;;;;;43.01;27.03711;95141.22;;;;
2020/07/27 14:29:40;;;;;;;1.9;1.7;;;;;;;43.01;27.03711;95141.22;;;;
2020/07/27 14:30:41;;;;;;;1.9;1.7;;;;;;;43.01;27.03711;95141.22;;;;
2020/07/27 14:31:42;;;;;;;1.9;1.7;;;;;;;43.01;27.03711;95141.22;;;;
2020/07/27 14:32:42;;;;;;;1.9;1.7;;;;;;;43.01;27.03711;95141.22;;;;
2020/07/27 14:33:43;;;;;;;1.9;1.7;;;;;;;43.01;27.03711;95141.22;;;;
2020/07/27 14:34:43;;;;;;;1.9;1.7;;;;;;;43.01;27.03711;95141.22;;;;
2020/07/27 14:35:44;;;;;;;1.9;1.7;;;;;;;43.01;27.03711;95141.22;;;;
2020/07/27 14:36:44;;;;;;;1.9;1.7;;;;;;;43.01;27.03711;95141.22;;;;
2020/07/27 14:37:45;;;;;;;1.9;1.7;;;;;;;43.01;27.03711;95141.22;;;;
2020/07/27 14:38:45;;;;;;;1.9;1.7;;;;;;;43.01;27.03711;95141.22;;;;
2020/07/27 14:39:46;;;;;;;1.9;1.7;;;;;;;43.01;27.03711;95141.22;;;;
2020/07/27 14:40:46;;;;;;;1.9;1.7;;;;;;;43.01;27.03711;95141.22;;;;
2020/07/27 14:41:47;;;;;;;1.9;1.7;;;;;;;43.01;27.03711;95141.22;;;;
2020/07/27 14:42:47;;;;;;;1.9;1.7;;;;;;;43.01;27.03711;95141.22;;;;
2020/07/27 14:43:48;;;;;;;1.9;1.7;;;;;;;43.01;27.03711;95141.22;;;;
2020/07/27 14:44:48;;;;;;;1.9;1.7;;;;;;;43.01;27.03711;95141.22;;;;
2020/07/27 14:45:50;;;;;;;1.9;1.7;;;;;;;43.01;27.03711;95141.22;;;;
2020/07/27 14:46:51;;;;;;;1.9;1.7;;;;;;;43.01;27.03711;95141.22;;;;
2020/07/27 14:47:51;;;;;;;1.9;1.7;;;;;;;43.01;27.03711;95141.22;;;;
2020/07/27 14:48:52;;;;;;;2.1;2;;;;;;;42.28;26.06348;95124.05;;;;
2020/07/27 14:49:52;;;;;;;2.1;2;;;;;;;42.28;26.06348;95124.05;;;;
2020/07/27 14:50:53;;;;;;;2.1;2;;;;;;;42.28;26.06348;95124.05;;;;
2020/07/27 14:51:53;;;;;;;2.1;2;;;;;;;42.28;26.06348;95124.05;;;;
2020/07/27 14:52:54;;;;;;;2.1;2;;;;;;;42.28;26.06348;95124.05;;;;
2020/07/27 14:53:54;;;;;;;2.1;2;;;;;;;42.28;26.06348;95124.05;;;;
2020/07/27 14:54:54;;;;;;;2.1;2;;;;;;;42.28;26.06348;95124.05;;;;
2020/07/27 14:55:55;;;;;;;2.1;2;;;;;;;42.28;26.06348;95124.05;;;;
2020/07/27 14:56:56;;;;;;;2.1;2;;;;;;;42.28;26.06348;95124.05;;;;
2020/07/27 14:57:56;;;;;;;2.1;2;;;;;;;42.28;26.06348;95124.05;;;;
2020/07/27 14:58:56;;;;;;;2.1;2;;;;;;;42.28;26.06348;95124.05;;;;
2020/07/27 14:59:57;;;;;;;2.1;2;;;;;;;42.28;26.06348;95124.05;;;;
2020/07/27 15:00:57;;;;;;;2.1;2;;;;;;;42.28;26.06348;95124.05;;;;
2020/07/27 15:02:03;;;;;;;2.1;2;;;;;;;42.28;26.06348;95124.05;;;;
2020/07/27 15:03:21;;;;;;;2.1;2;;;;;;;42.28;26.06348;95124.05;;;;
2020/07/27 15:04:22;;;;;;;2.1;2;;;;;;;42.28;26.06348;95124.05;;;;
2020/07/27 15:05:22;;;;;;;2.1;2;;;;;;;42.28;26.06348;95124.05;;;;
2020/07/27 15:06:23;;;;;;;2.1;2;;;;;;;42.28;26.06348;95124.05;;;;
2020/07/27 15:07:23;;;;;;;2.1;2;;;;;;;42.28;26.06348;95124.05;;;;
2020/07/27 15:08:24;;;;;;;2.1;2;;;;;;;42.28;26.06348;95124.05;;;;
2020/07/27 15:09:26;;;;;;;2.1;2;;;;;;;42.28;26.06348;95124.05;;;;
2020/07/27 15:10:27;;;;;;;2.1;2;;;;;;;42.28;26.06348;95124.05;;;;
2020/07/27 15:11:27;;;;;;;2.1;2;;;;;;;42.28;26.06348;95124.05;;;;
2020/07/27 15:12:28;;;;;;;2.1;2;;;;;;;42.28;26.06348;95124.05;;;;
2020/07/27 15:13:28;;;;;;;2.1;2;;;;;;;42.28;26.06348;95124.05;;;;
2020/07/27 15:14:30;;;;;;;2.1;2;;;;;;;42.28;26.06348;95124.05;;;;
2020/07/27 15:15:31;;;;;;;2.1;2;;;;;;;42.28;26.06348;95124.05;;;;
2020/07/27 15:16:31;;;;;;;2.1;2;;;;;;;42.28;26.06348;95124.05;;;;
2020/07/27 15:17:32;;;;;;;2.1;2;;;;;;;42.28;26.06348;95124.05;;;;
2020/07/27 15:18:32;;;;;;;2.1;2;;;;;;;42.28;26.06348;95124.05;;;;
2020/07/27 15:19:33;;;;;;;2.1;2;;;;;;;42.28;26.06348;95124.05;;;;
2020/07/27 15:20:33;;;;;;;2.1;2;;;;;;;42.28;26.06348;95124.05;;;;
2020/07/27 15:21:34;;;;;;;2.1;2;;;;;;;42.28;26.06348;95124.05;;;;
2020/07/27 15:22:34;;;;;;;2.1;2;;;;;;;42.28;26.06348;95124.05;;;;
2020/07/27 15:23:34;;;;;;;2.1;2;;;;;;;42.28;26.06348;95124.05;;;;
2020/07/27 15:24:35;;;;;;;2.1;2;;;;;;;42.28;26.06348;95124.05;;;;
2020/07/27 15:25:41;;;;;;;2.1;2;;;;;;;42.28;26.06348;95124.05;;;;
2020/07/27 15:26:44;;;;;;;2.1;2;;;;;;;42.28;26.06348;95124.05;;;;
2020/07/27 15:27:46;;;;;;;2.1;2;;;;;;;42.28;26.06348;95124.05;;;;
2020/07/27 15:28:47;;;;;;;2.1;2;;;;;;;42.28;26.06348;95124.05;;;;
2020/07/27 15:29:47;;;;;;;2.1;2;;;;;;;42.28;26.06348;95124.05;;;;
2020/07/27 15:30:48;;;;;;;2.1;2;;;;;;;42.28;26.06348;95124.05;;;;
2020/07/27 15:31:53;;;;;;;2.1;2;;;;;;;42.28;26.06348;95124.05;;;;
2020/07/27 15:32:57;;;;;;;2.1;2;;;;;;;42.28;26.06348;95124.05;;;;
2020/07/27 16:38:01;;;;;;;2.6;2.4;;;;;;;36.02;29.69922;95018.52;;;;
2020/07/27 16:39:01;;;;;;;2.6;2.4;;;;;;;36.02;29.69922;95018.52;;;;
2020/07/27 16:40:02;;;;;;;2.6;2.4;;;;;;;36.02;29.69922;95018.52;;;;
2020/07/27 16:41:02;;;;;;;2.6;2.4;;;;;;;36.02;29.69922;95018.52;;;;
2020/07/27 16:42:03;;;;;;;2.6;2.4;;;;;;;36.02;29.69922;95018.52;;;;
2020/07/27 16:43:03;;;;;;;2.6;2.4;;;;;;;36.02;29.69922;95018.52;;;;
2020/07/27 16:44:04;;;;;;;2.6;2.4;;;;;;;36.02;29.69922;95018.52;;;;
2020/07/27 16:45:05;;;;;;;2.6;2.4;;;;;;;36.02;29.69922;95018.52;;;;
2020/07/27 16:46:05;;;;;;;2.6;2.4;;;;;;;36.02;29.69922;95018.52;;;;
2020/07/27 16:47:05;;;;;;;2.6;2.4;;;;;;;36.02;29.69922;95018.52;;;;
2020/07/27 16:48:06;;;;;;;2.15;2;;;;;;;35.34;30.2168;95011.69;;;;
2020/07/27 16:49:08;;;;;;;2.15;2;;;;;;;35.34;30.2168;95011.69;;;;
2020/07/27 16:50:12;;;;;;;2.15;2;;;;;;;35.34;30.2168;95011.69;;;;
2020/07/27 16:51:15;;;;;;;2.15;2;;;;;;;35.34;30.2168;95011.69;;;;
2020/07/27 16:52:15;;;;;;;2.15;2;;;;;;;35.34;30.2168;95011.69;;;;
2020/07/27 16:53:16;;;;;;;2.15;2;;;;;;;35.34;30.2168;95011.69;;;;
2020/07/27 16:54:16;;;;;;;2.15;2;;;;;;;35.34;30.2168;95011.69;;;;
2020/07/27 16:55:17;;;;;;;2.15;2;;;;;;;35.34;30.2168;95011.69;;;;
2020/07/27 16:56:17;;;;;;;2.15;2;;;;;;;35.34;30.2168;95011.69;;;;
2020/07/27 16:57:18;;;;;;;2.15;2;;;;;;;35.34;30.2168;95011.69;;;;
2020/07/27 16:58:18;;;;;;;2.15;2;;;;;;;35.34;30.2168;95011.69;;;;
2020/07/27 16:59:19;;;;;;;2.2;2;;;;;;;33.87;30.88477;95012.48;;;;
2020/07/27 17:00:19;;;;;;;2.2;2;;;;;;;33.87;30.88477;95012.48;;;;
2020/07/27 17:01:20;;;;;;;2.2;2;;;;;;;33.87;30.88477;95012.48;;;;
2020/07/27 17:02:20;;;;;;;2.2;2;;;;;;;33.87;30.88477;95012.48;;;;
2020/07/27 17:03:21;;;;;;;2.2;2;;;;;;;33.87;30.88477;95012.48;;;;
2020/07/27 17:04:21;;;;;;;2.2;2;;;;;;;33.87;30.88477;95012.48;;;;
2020/07/27 17:05:22;;;;;;;2.2;2;;;;;;;33.87;30.88477;95012.48;;;;
2020/07/27 17:06:22;;;;;;;2.2;2;;;;;;;33.87;30.88477;95012.48;;;;
2020/07/27 17:07:23;;;;;;;2.2;2;;;;;;;33.87;30.88477;95012.48;;;;
2020/07/27 17:08:23;;;;;;;2.2;2;;;;;;;33.87;30.88477;95012.48;;;;
2020/07/27 17:09:24;;;;;;;3.2;2.05;;;;;;;32.33;32.56836;94998.94;;;;
2020/07/27 17:10:24;;;;;;;3.2;2.05;;;;;;;32.33;32.56836;94998.94;;;;
2020/07/27 17:11:25;;;;;;;3.2;2.05;;;;;;;32.33;32.56836;94998.94;;;;
2020/07/27 17:12:25;;;;;;;3.2;2.05;;;;;;;32.33;32.56836;94998.94;;;;
2020/07/27 17:13:26;;;;;;;3.2;2.05;;;;;;;32.33;32.56836;94998.94;;;;
2020/07/27 17:14:26;;;;;;;3.2;2.05;;;;;;;32.33;32.56836;94998.94;;;;
2020/07/27 17:15:26;;;;;;;3.2;2.05;;;;;;;32.33;32.56836;94998.94;;;;
2020/07/27 17:16:27;;;;;;;3.2;2.05;;;;;;;32.33;32.56836;94998.94;;;;
2020/07/27 17:17:27;;;;;;;3.2;2.05;;;;;;;32.33;32.56836;94998.94;;;;
2020/07/27 17:18:28;;;;;;;3.2;2.05;;;;;;;32.33;32.56836;94998.94;;;;
2020/07/27 17:19:30;;;;;;;3.2;2.05;;;;;;;32.33;32.56836;94998.94;;;;
2020/07/27 17:20:30;;;;;;;3.8;2.3;;;;;;;30.9;33.67969;94989.95;;;;
2020/07/27 17:21:31;;;;;;;3.8;2.3;;;;;;;30.9;33.67969;94989.95;;;;
2020/07/27 17:22:32;;;;;;;3.8;2.3;;;;;;;30.9;33.67969;94989.95;;;;
2020/07/27 17:23:33;;;;;;;3.8;2.3;;;;;;;30.9;33.67969;94989.95;;;;
2020/07/27 17:24:33;;;;;;;3.8;2.3;;;;;;;30.9;33.67969;94989.95;;;;
2020/07/27 17:25:34;;;;;;;3.8;2.3;;;;;;;30.9;33.67969;94989.95;;;;
2020/07/27 17:26:34;;;;;;;3.8;2.3;;;;;;;30.9;33.67969;94989.95;;;;
2020/07/27 17:27:35;;;;;;;3.8;2.3;;;;;;;30.9;33.67969;94989.95;;;;
2020/07/27 17:28:36;;;;;;;3.8;2.3;;;;;;;30.9;33.67969;94989.95;;;;
2020/07/27 17:29:37;;;;;;;3.8;2.3;;;;;;;30.9;33.67969;94989.95;;;;
2020/07/27 17:30:37;;;;;;;2.2;2.1;;;;;;;29.81;35.74707;94981.56;;;;
2020/07/27 17:31:38;;;;;;;2.2;2.1;;;;;;;29.81;35.74707;94981.56;;;;
2020/07/27 17:32:38;;;;;;;2.2;2.1;;;;;;;29.81;35.74707;94981.56;;;;
2020/07/27 17:33:39;;;;;;;2.2;2.1;;;;;;;29.81;35.74707;94981.56;;;;
2020/07/27 17:34:39;;;;;;;2.2;2.1;;;;;;;29.81;35.74707;94981.56;;;;
2020/07/27 17:35:40;;;;;;;2.2;2.1;;;;;;;29.81;35.74707;94981.56;;;;
2020/07/27 17:36:40;;;;;;;2.2;2.1;;;;;;;29.81;35.74707;94981.56;;;;
2020/07/27 17:37:41;;;;;;;2.2;2.1;;;;;;;29.81;35.74707;94981.56;;;;
2020/07/27 17:38:41;;;;;;;2.2;2.1;;;;;;;29.81;35.74707;94981.56;;;;
2020/07/27 17:39:42;;;;;;;2.2;2.1;;;;;;;29.81;35.74707;94981.56;;;;
2020/07/27 17:40:42;;;;;;;2.2;2.1;;;;;;;29.81;35.74707;94981.56;;;;
2020/07/27 17:41:43;;;;;;;2.5;2.3;;;;;;;28.94;37.63086;94986.78;;;;
2020/07/27 17:42:43;;;;;;;2.5;2.3;;;;;;;28.94;37.63086;94986.78;;;;
2020/07/27 17:43:44;;;;;;;2.5;2.3;;;;;;;28.94;37.63086;94986.78;;;;
2020/07/27 17:44:44;;;;;;;2.5;2.3;;;;;;;28.94;37.63086;94986.78;;;;
2020/07/27 17:45:45;;;;;;;2.5;2.3;;;;;;;28.94;37.63086;94986.78;;;;
2020/07/27 17:46:45;;;;;;;2.5;2.3;;;;;;;28.94;37.63086;94986.78;;;;
2020/07/27 17:47:46;;;;;;;2.5;2.3;;;;;;;28.94;37.63086;94986.78;;;;
2020/07/27 17:48:46;;;;;;;2.5;2.3;;;;;;;28.94;37.63086;94986.78;;;;
2020/07/27 17:49:47;;;;;;;2.5;2.3;;;;;;;28.94;37.63086;94986.78;;;;
2020/07/27 17:50:47;;;;;;;2.5;2.3;;;;;;;28.94;37.63086;94986.78;;;;
2020/07/27 17:51:48;;;;;;;3.95;2.45;;;;;;;28.28;39.23047;94983.81;;;;
2020/07/27 17:52:48;;;;;;;3.95;2.45;;;;;;;28.28;39.23047;94983.81;;;;
2020/07/27 17:53:48;;;;;;;3.95;2.45;;;;;;;28.28;39.23047;94983.81;;;;
2020/07/27 17:54:49;;;;;;;3.95;2.45;;;;;;;28.28;39.23047;94983.81;;;;
2020/07/27 17:55:50;;;;;;;3.95;2.45;;;;;;;28.28;39.23047;94983.81;;;;
2020/07/27 17:58:17;;;;;;;3.95;2.45;;;;;;;28.28;39.23047;94983.81;;;;
2020/07/27 18:02:46;;;;;;;3.95;2.45;;;;;;;28.28;39.23047;94983.81;;;;
2020/07/27 18:06:54;;;;;;;2.4;2.2;;;;;;;27.63;41.23047;94985.06;;;;
2020/07/27 18:08:03;;;;;;;2.4;2.2;;;;;;;27.63;41.23047;94985.06;;;;
2020/07/27 18:09:08;;;;;;;2.4;2.2;;;;;;;27.63;41.23047;94985.06;;;;
2020/07/27 18:10:11;;;;;;;2.4;2.2;;;;;;;27.63;41.23047;94985.06;;;;
2020/07/27 18:11:12;;;;;;;2.4;2.2;;;;;;;27.63;41.23047;94985.06;;;;
2020/07/27 18:12:12;;;;;;;2.4;2.2;;;;;;;27.63;41.23047;94985.06;;;;
2020/07/27 18:13:13;;;;;;;3.4;2.2;;;;;;;27.07;42.7832;94980.31;;;;
2020/07/27 18:14:13;;;;;;;3.4;2.2;;;;;;;27.07;42.7832;94980.31;;;;
2020/07/27 18:15:14;;;;;;;3.4;2.2;;;;;;;27.07;42.7832;94980.31;;;;
2020/07/27 18:16:14;;;;;;;3.4;2.2;;;;;;;27.07;42.7832;94980.31;;;;
2020/07/27 18:17:15;;;;;;;3.4;2.2;;;;;;;27.07;42.7832;94980.31;;;;
2020/07/27 18:18:15;;;;;;;3.4;2.2;;;;;;;27.07;42.7832;94980.31;;;;
2020/07/27 18:19:16;;;;;;;3.4;2.2;;;;;;;27.07;42.7832;94980.31;;;;
2020/07/27 18:20:16;;;;;;;3.4;2.2;;;;;;;27.07;42.7832;94980.31;;;;
2020/07/27 18:21:17;;;;;;;3.4;2.2;;;;;;;27.07;42.7832;94980.31;;;;
2020/07/27 18:22:17;;;;;;;3.4;2.2;;;;;;;27.07;42.7832;94980.31;;;;
2020/07/27 18:23:18;;;;;;;3.2;2.45;;;;;;;26.46;43.77734;94989.69;;;;
2020/07/27 18:24:18;;;;;;;3.2;2.45;;;;;;;26.46;43.77734;94989.69;;;;
2020/07/27 18:25:19;;;;;;;3.2;2.45;;;;;;;26.46;43.77734;94989.69;;;;
2020/07/27 18:26:19;;;;;;;3.2;2.45;;;;;;;26.46;43.77734;94989.69;;;;
2020/07/27 18:27:20;;;;;;;3.2;2.45;;;;;;;26.46;43.77734;94989.69;;;;
2020/07/27 18:28:20;;;;;;;3.2;2.45;;;;;;;26.46;43.77734;94989.69;;;;
2020/07/27 18:29:21;;;;;;;3.2;2.45;;;;;;;26.46;43.77734;94989.69;;;;
2020/07/27 18:30:21;;;;;;;3.2;2.45;;;;;;;26.46;43.77734;94989.69;;;;
2020/07/27 18:31:22;;;;;;;3.2;2.45;;;;;;;26.46;43.77734;94989.69;;;;
2020/07/27 18:32:22;;;;;;;3.2;2.45;;;;;;;26.46;43.77734;94989.69;;;;
2020/07/27 18:33:23;;;;;;;3.2;2.45;;;;;;;26.46;43.77734;94989.69;;;;
2020/07/27 18:34:24;;;;;;;2.45;2.25;;;;;;;25.92;45.39063;94985.74;;;;
2020/07/27 18:35:24;;;;;;;2.45;2.25;;;;;;;25.92;45.39063;94985.74;;;;
2020/07/27 18:36:25;;;;;;;2.45;2.25;;;;;;;25.92;45.39063;94985.74;;;;
2020/07/27 18:37:25;;;;;;;2.45;2.25;;;;;;;25.92;45.39063;94985.74;;;;
2020/07/27 18:38:26;;;;;;;2.45;2.25;;;;;;;25.92;45.39063;94985.74;;;;
2020/07/27 18:39:27;;;;;;;2.45;2.25;;;;;;;25.92;45.39063;94985.74;;;;
2020/07/27 18:40:27;;;;;;;2.45;2.25;;;;;;;25.92;45.39063;94985.74;;;;
2020/07/27 18:41:28;;;;;;;2.45;2.25;;;;;;;25.92;45.39063;94985.74;;;;
2020/07/27 18:50:51;;;;;;;2.8;2.45;;;;;;;25.3;46.48926;94985.71;;;;
2020/07/27 18:55:52;;;;;;;2.8;2.45;;;;;;;25.3;46.48926;94985.71;;;;
2020/07/27 18:56:55;;;;;;;2.8;2.45;;;;;;;25.3;46.48926;94985.71;;;;
2020/07/27 18:57:55;;;;;;;2.8;2.45;;;;;;;25.3;46.48926;94985.71;;;;
2020/07/27 18:58:58;;;;;;;2.8;2.45;;;;;;;25.3;46.48926;94985.71;;;;
2020/07/27 19:00:09;;;;;;;2.8;2.45;;;;;;;25.3;46.48926;94985.71;;;;
2020/07/27 19:05:29;;;;;;;2.8;2.45;;;;;;;25.3;46.48926;94985.71;;;;